sensor_id;sensor_type;location;lat;lon;timestamp;P1;durP1;ratioP1;P2;durP2;ratioP2
1507;SDS011;745;48.586;10.032;2023-11-21T00:01:24;6.57;;;3.13;;
1507;SDS011;745;48.586;10.032;2023-11-21T00:03:25;3.70;;;2.40;;
1507;SDS011;745;48.586;10.032;2023-11-21T00:05:28;5.30;;;2.38;;
1507;SDS011;745;48.586;10.032;2023-11-21T00:07:28;4.60;;;2.70;;
1507;SDS011;745;48.586;10.032;2023-11-21T00:09:28;7.40;;;2.30;;
1507;SDS011;745;48.586;10.032;2023-11-21T00:11:29;3.63;;;2.40;;
1507;SDS011;745;48.586;10.032;2023-11-21T00:13:29;4.90;;;2.83;;
1507;SDS011;745;48.586;10.032;2023-11-21T00:15:29;4.70;;;2.20;;
1507;SDS011;745;48.586;10.032;2023-11-21T00:17:30;4.50;;;2.37;;
1507;SDS011;745;48.586;10.032;2023-11-21T00:19:30;3.97;;;2.63;;
1507;SDS011;745;48.586;10.032;2023-11-21T00:21:31;8.27;;;2.77;;
1507;SDS011;745;48.586;10.032;2023-11-21T00:23:31;4.20;;;2.80;;
1507;SDS011;745;48.586;10.032;2023-11-21T00:25:31;9.60;;;4.93;;
1507;SDS011;745;48.586;10.032;2023-11-21T00:27:32;10.37;;;5.20;;
1507;SDS011;745;48.586;10.032;2023-11-21T00:29:32;13.07;;;5.50;;
1507;SDS011;745;48.586;10.032;2023-11-21T00:31:32;9.60;;;5.00;;
1507;SDS011;745;48.586;10.032;2023-11-21T00:33:33;9.67;;;5.63;;
1507;SDS011;745;48.586;10.032;2023-11-21T00:35:33;6.20;;;4.33;;
1507;SDS011;745;48.586;10.032;2023-11-21T00:37:34;10.10;;;4.83;;
1507;SDS011;745;48.586;10.032;2023-11-21T00:39:34;9.23;;;3.33;;
1507;SDS011;745;48.586;10.032;2023-11-21T00:41:35;3.90;;;2.70;;
1507;SDS011;745;48.586;10.032;2023-11-21T00:43:36;6.32;;;3.55;;
1507;SDS011;745;48.586;10.032;2023-11-21T00:45:36;4.40;;;2.80;;
1507;SDS011;745;48.586;10.032;2023-11-21T00:47:37;4.63;;;3.07;;
1507;SDS011;745;48.586;10.032;2023-11-21T00:49:38;5.57;;;3.33;;
1507;SDS011;745;48.586;10.032;2023-11-21T00:51:39;5.43;;;2.90;;
1507;SDS011;745;48.586;10.032;2023-11-21T00:53:39;7.87;;;3.60;;
1507;SDS011;745;48.586;10.032;2023-11-21T00:55:39;7.33;;;3.47;;
1507;SDS011;745;48.586;10.032;2023-11-21T00:57:40;5.50;;;2.97;;
1507;SDS011;745;48.586;10.032;2023-11-21T00:59:40;3.60;;;3.17;;
1507;SDS011;745;48.586;10.032;2023-11-21T01:01:41;4.80;;;3.10;;
1507;SDS011;745;48.586;10.032;2023-11-21T01:03:41;7.07;;;2.90;;
1507;SDS011;745;48.586;10.032;2023-11-21T01:05:42;8.57;;;3.50;;
1507;SDS011;745;48.586;10.032;2023-11-21T01:07:42;4.63;;;2.90;;
1507;SDS011;745;48.586;10.032;2023-11-21T01:09:42;5.47;;;2.63;;
1507;SDS011;745;48.586;10.032;2023-11-21T01:11:44;7.75;;;2.70;;
1507;SDS011;745;48.586;10.032;2023-11-21T01:13:44;4.80;;;2.40;;
1507;SDS011;745;48.586;10.032;2023-11-21T01:15:44;6.77;;;2.53;;
1507;SDS011;745;48.586;10.032;2023-11-21T01:17:45;5.77;;;3.10;;
1507;SDS011;745;48.586;10.032;2023-11-21T01:19:45;9.13;;;2.80;;
1507;SDS011;745;48.586;10.032;2023-11-21T01:21:45;4.57;;;2.60;;
1507;SDS011;745;48.586;10.032;2023-11-21T01:23:47;5.50;;;2.80;;
1507;SDS011;745;48.586;10.032;2023-11-21T01:25:47;4.10;;;2.80;;
1507;SDS011;745;48.586;10.032;2023-11-21T01:27:47;7.73;;;2.57;;
1507;SDS011;745;48.586;10.032;2023-11-21T01:29:48;6.67;;;2.60;;
1507;SDS011;745;48.586;10.032;2023-11-21T01:31:48;5.57;;;2.90;;
1507;SDS011;745;48.586;10.032;2023-11-21T01:33:48;5.23;;;2.57;;
1507;SDS011;745;48.586;10.032;2023-11-21T01:35:49;3.77;;;2.33;;
1507;SDS011;745;48.586;10.032;2023-11-21T01:37:49;5.40;;;2.67;;
1507;SDS011;745;48.586;10.032;2023-11-21T01:39:49;4.70;;;2.43;;
1507;SDS011;745;48.586;10.032;2023-11-21T01:41:50;5.43;;;2.80;;
1507;SDS011;745;48.586;10.032;2023-11-21T01:43:51;7.35;;;2.60;;
1507;SDS011;745;48.586;10.032;2023-11-21T01:45:54;6.32;;;2.40;;
1507;SDS011;745;48.586;10.032;2023-11-21T01:47:57;3.15;;;2.28;;
1507;SDS011;745;48.586;10.032;2023-11-21T01:49:58;3.10;;;2.22;;
1507;SDS011;745;48.586;10.032;2023-11-21T01:51:58;5.90;;;2.30;;
1507;SDS011;745;48.586;10.032;2023-11-21T01:53:59;6.37;;;2.70;;
1507;SDS011;745;48.586;10.032;2023-11-21T01:55:59;4.47;;;2.50;;
1507;SDS011;745;48.586;10.032;2023-11-21T01:58:00;6.93;;;2.73;;
1507;SDS011;745;48.586;10.032;2023-11-21T02:00:01;4.82;;;2.20;;
1507;SDS011;745;48.586;10.032;2023-11-21T02:02:15;5.15;;;2.25;;
1507;SDS011;745;48.586;10.032;2023-11-21T02:04:16;6.93;;;2.83;;
1507;SDS011;745;48.586;10.032;2023-11-21T02:06:17;3.97;;;2.33;;
1507;SDS011;745;48.586;10.032;2023-11-21T02:08:18;4.03;;;2.40;;
1507;SDS011;745;48.586;10.032;2023-11-21T02:10:19;7.93;;;2.53;;
1507;SDS011;745;48.586;10.032;2023-11-21T02:12:25;10.20;;;2.80;;
1507;SDS011;745;48.586;10.032;2023-11-21T02:14:27;5.88;;;2.30;;
1507;SDS011;745;48.586;10.032;2023-11-21T02:16:27;3.53;;;2.20;;
1507;SDS011;745;48.586;10.032;2023-11-21T02:18:31;5.25;;;2.65;;
1507;SDS011;745;48.586;10.032;2023-11-21T02:20:31;3.50;;;2.27;;
1507;SDS011;745;48.586;10.032;2023-11-21T02:22:34;5.32;;;2.30;;
1507;SDS011;745;48.586;10.032;2023-11-21T02:24:40;3.28;;;2.35;;
1507;SDS011;745;48.586;10.032;2023-11-21T02:26:42;3.70;;;2.60;;
1507;SDS011;745;48.586;10.032;2023-11-21T02:28:42;4.93;;;2.50;;
1507;SDS011;745;48.586;10.032;2023-11-21T02:30:43;4.97;;;2.63;;
1507;SDS011;745;48.586;10.032;2023-11-21T02:32:43;3.27;;;2.20;;
1507;SDS011;745;48.586;10.032;2023-11-21T02:34:44;3.23;;;2.17;;
1507;SDS011;745;48.586;10.032;2023-11-21T02:36:44;2.60;;;2.40;;
1507;SDS011;745;48.586;10.032;2023-11-21T02:38:44;3.00;;;2.30;;
1507;SDS011;745;48.586;10.032;2023-11-21T02:40:45;3.00;;;2.03;;
1507;SDS011;745;48.586;10.032;2023-11-21T02:42:48;6.67;;;2.40;;
1507;SDS011;745;48.586;10.032;2023-11-21T02:44:50;6.30;;;2.10;;
1507;SDS011;745;48.586;10.032;2023-11-21T02:46:51;6.77;;;2.60;;
1507;SDS011;745;48.586;10.032;2023-11-21T02:48:51;2.67;;;2.30;;
1507;SDS011;745;48.586;10.032;2023-11-21T02:50:54;5.45;;;2.33;;
1507;SDS011;745;48.586;10.032;2023-11-21T02:52:54;6.10;;;2.87;;
1507;SDS011;745;48.586;10.032;2023-11-21T02:54:54;4.27;;;1.90;;
1507;SDS011;745;48.586;10.032;2023-11-21T02:56:55;3.67;;;2.30;;
1507;SDS011;745;48.586;10.032;2023-11-21T02:58:55;4.77;;;2.33;;
1507;SDS011;745;48.586;10.032;2023-11-21T03:00:56;5.20;;;2.10;;
1507;SDS011;745;48.586;10.032;2023-11-21T03:02:56;5.90;;;2.47;;
1507;SDS011;745;48.586;10.032;2023-11-21T03:04:58;3.00;;;2.10;;
1507;SDS011;745;48.586;10.032;2023-11-21T03:06:58;5.20;;;1.97;;
1507;SDS011;745;48.586;10.032;2023-11-21T03:08:58;4.00;;;2.20;;
1507;SDS011;745;48.586;10.032;2023-11-21T03:10:59;4.10;;;1.83;;
1507;SDS011;745;48.586;10.032;2023-11-21T03:12:59;2.33;;;1.80;;
1507;SDS011;745;48.586;10.032;2023-11-21T03:14:59;2.13;;;1.80;;
1507;SDS011;745;48.586;10.032;2023-11-21T03:17:01;7.47;;;2.83;;
1507;SDS011;745;48.586;10.032;2023-11-21T03:19:02;6.20;;;2.45;;
1507;SDS011;745;48.586;10.032;2023-11-21T03:21:06;3.87;;;2.00;;
1507;SDS011;745;48.586;10.032;2023-11-21T03:23:08;4.57;;;2.00;;
1507;SDS011;745;48.586;10.032;2023-11-21T03:25:09;3.87;;;2.20;;
1507;SDS011;745;48.586;10.032;2023-11-21T03:27:12;3.35;;;2.20;;
1507;SDS011;745;48.586;10.032;2023-11-21T03:29:12;4.10;;;1.90;;
1507;SDS011;745;48.586;10.032;2023-11-21T03:31:13;2.80;;;1.67;;
1507;SDS011;745;48.586;10.032;2023-11-21T03:33:13;3.97;;;2.10;;
1507;SDS011;745;48.586;10.032;2023-11-21T03:35:13;5.37;;;1.80;;
1507;SDS011;745;48.586;10.032;2023-11-21T03:37:14;2.13;;;1.93;;
1507;SDS011;745;48.586;10.032;2023-11-21T03:39:14;3.33;;;2.00;;
1507;SDS011;745;48.586;10.032;2023-11-21T03:41:15;5.47;;;2.00;;
1507;SDS011;745;48.586;10.032;2023-11-21T03:43:15;4.03;;;2.20;;
1507;SDS011;745;48.586;10.032;2023-11-21T03:45:15;3.97;;;2.17;;
1507;SDS011;745;48.586;10.032;2023-11-21T03:47:16;5.87;;;2.90;;
1507;SDS011;745;48.586;10.032;2023-11-21T03:49:16;3.80;;;2.93;;
1507;SDS011;745;48.586;10.032;2023-11-21T03:51:16;3.30;;;2.47;;
1507;SDS011;745;48.586;10.032;2023-11-21T03:53:17;3.77;;;2.53;;
1507;SDS011;745;48.586;10.032;2023-11-21T03:55:17;2.90;;;2.23;;
1507;SDS011;745;48.586;10.032;2023-11-21T03:57:17;5.40;;;2.57;;
1507;SDS011;745;48.586;10.032;2023-11-21T03:59:18;6.13;;;2.10;;
1507;SDS011;745;48.586;10.032;2023-11-21T04:01:22;3.95;;;2.28;;
1507;SDS011;745;48.586;10.032;2023-11-21T04:03:22;4.45;;;2.00;;
1507;SDS011;745;48.586;10.032;2023-11-21T04:05:23;2.10;;;1.90;;
1507;SDS011;745;48.586;10.032;2023-11-21T04:07:23;3.30;;;1.97;;
1507;SDS011;745;48.586;10.032;2023-11-21T04:09:24;6.40;;;2.27;;
1507;SDS011;745;48.586;10.032;2023-11-21T04:11:25;5.40;;;2.17;;
1507;SDS011;745;48.586;10.032;2023-11-21T04:13:25;2.27;;;2.07;;
1507;SDS011;745;48.586;10.032;2023-11-21T04:15:25;2.30;;;2.10;;
1507;SDS011;745;48.586;10.032;2023-11-21T04:17:26;7.00;;;2.33;;
1507;SDS011;745;48.586;10.032;2023-11-21T04:19:26;5.73;;;2.33;;
1507;SDS011;745;48.586;10.032;2023-11-21T04:21:26;2.67;;;2.07;;
1507;SDS011;745;48.586;10.032;2023-11-21T04:23:28;2.20;;;2.00;;
1507;SDS011;745;48.586;10.032;2023-11-21T04:25:29;2.15;;;1.95;;
1507;SDS011;745;48.586;10.032;2023-11-21T04:27:29;2.67;;;1.88;;
1507;SDS011;745;48.586;10.032;2023-11-21T04:29:30;3.43;;;2.20;;
1507;SDS011;745;48.586;10.032;2023-11-21T04:31:30;5.90;;;2.07;;
1507;SDS011;745;48.586;10.032;2023-11-21T04:33:31;4.87;;;2.00;;
1507;SDS011;745;48.586;10.032;2023-11-21T04:35:31;6.60;;;2.10;;
1507;SDS011;745;48.586;10.032;2023-11-21T04:37:31;3.73;;;2.80;;
1507;SDS011;745;48.586;10.032;2023-11-21T04:39:32;5.30;;;2.80;;
1507;SDS011;745;48.586;10.032;2023-11-21T04:41:32;3.80;;;3.10;;
1507;SDS011;745;48.586;10.032;2023-11-21T04:43:32;5.67;;;3.70;;
1507;SDS011;745;48.586;10.032;2023-11-21T04:45:33;3.50;;;2.97;;
1507;SDS011;745;48.586;10.032;2023-11-21T04:47:33;6.23;;;2.53;;
1507;SDS011;745;48.586;10.032;2023-11-21T04:49:34;3.33;;;2.50;;
1507;SDS011;745;48.586;10.032;2023-11-21T04:51:34;5.00;;;2.50;;
1507;SDS011;745;48.586;10.032;2023-11-21T04:53:34;5.10;;;2.40;;
1507;SDS011;745;48.586;10.032;2023-11-21T04:55:35;5.13;;;3.00;;
1507;SDS011;745;48.586;10.032;2023-11-21T04:57:37;4.37;;;2.30;;
1507;SDS011;745;48.586;10.032;2023-11-21T04:59:38;3.72;;;1.98;;
1507;SDS011;745;48.586;10.032;2023-11-21T05:01:38;3.00;;;2.07;;
1507;SDS011;745;48.586;10.032;2023-11-21T05:03:39;5.80;;;2.13;;
1507;SDS011;745;48.586;10.032;2023-11-21T05:05:39;7.20;;;2.97;;
1507;SDS011;745;48.586;10.032;2023-11-21T05:07:40;2.67;;;2.37;;
1507;SDS011;745;48.586;10.032;2023-11-21T05:09:42;5.20;;;2.80;;
1507;SDS011;745;48.586;10.032;2023-11-21T05:11:44;2.75;;;2.13;;
1507;SDS011;745;48.586;10.032;2023-11-21T05:13:44;3.53;;;2.13;;
1507;SDS011;745;48.586;10.032;2023-11-21T05:15:44;4.63;;;2.47;;
1507;SDS011;745;48.586;10.032;2023-11-21T05:17:45;4.70;;;2.57;;
1507;SDS011;745;48.586;10.032;2023-11-21T05:19:46;3.65;;;2.40;;
1507;SDS011;745;48.586;10.032;2023-11-21T05:21:48;4.78;;;2.30;;
1507;SDS011;745;48.586;10.032;2023-11-21T05:23:48;3.40;;;2.10;;
1507;SDS011;745;48.586;10.032;2023-11-21T05:25:49;2.13;;;2.03;;
1507;SDS011;745;48.586;10.032;2023-11-21T05:27:49;3.57;;;2.43;;
1507;SDS011;745;48.586;10.032;2023-11-21T05:29:50;4.90;;;2.47;;
1507;SDS011;745;48.586;10.032;2023-11-21T05:31:50;2.30;;;2.10;;
1507;SDS011;745;48.586;10.032;2023-11-21T05:33:51;4.93;;;2.20;;
1507;SDS011;745;48.586;10.032;2023-11-21T05:35:51;4.17;;;2.00;;
1507;SDS011;745;48.586;10.032;2023-11-21T05:37:52;2.77;;;2.50;;
1507;SDS011;745;48.586;10.032;2023-11-21T05:39:52;3.07;;;2.63;;
1507;SDS011;745;48.586;10.032;2023-11-21T05:41:53;4.47;;;2.50;;
1507;SDS011;745;48.586;10.032;2023-11-21T05:43:53;3.10;;;2.63;;
1507;SDS011;745;48.586;10.032;2023-11-21T05:45:54;4.10;;;2.63;;
1507;SDS011;745;48.586;10.032;2023-11-21T05:47:54;6.43;;;3.60;;
1507;SDS011;745;48.586;10.032;2023-11-21T05:49:55;4.00;;;3.40;;
1507;SDS011;745;48.586;10.032;2023-11-21T05:51:55;5.27;;;3.37;;
1507;SDS011;745;48.586;10.032;2023-11-21T05:53:56;4.70;;;3.63;;
1507;SDS011;745;48.586;10.032;2023-11-21T05:55:56;6.23;;;4.17;;
1507;SDS011;745;48.586;10.032;2023-11-21T05:57:57;4.70;;;3.67;;
1507;SDS011;745;48.586;10.032;2023-11-21T05:59:57;5.93;;;4.13;;
1507;SDS011;745;48.586;10.032;2023-11-21T06:01:57;5.53;;;4.20;;
1507;SDS011;745;48.586;10.032;2023-11-21T06:03:58;3.88;;;3.30;;
1507;SDS011;745;48.586;10.032;2023-11-21T06:05:59;3.97;;;3.37;;
1507;SDS011;745;48.586;10.032;2023-11-21T06:07:59;3.50;;;2.60;;
1507;SDS011;745;48.586;10.032;2023-11-21T06:10:03;4.50;;;2.17;;
1507;SDS011;745;48.586;10.032;2023-11-21T06:12:07;4.28;;;3.10;;
1507;SDS011;745;48.586;10.032;2023-11-21T06:14:07;3.40;;;2.40;;
1507;SDS011;745;48.586;10.032;2023-11-21T06:16:09;3.15;;;2.85;;
1507;SDS011;745;48.586;10.032;2023-11-21T06:18:09;3.00;;;2.67;;
1507;SDS011;745;48.586;10.032;2023-11-21T06:20:11;3.17;;;2.97;;
1507;SDS011;745;48.586;10.032;2023-11-21T06:22:14;3.58;;;3.03;;
1507;SDS011;745;48.586;10.032;2023-11-21T06:24:15;3.17;;;2.10;;
1507;SDS011;745;48.586;10.032;2023-11-21T06:26:15;3.20;;;2.60;;
1507;SDS011;745;48.586;10.032;2023-11-21T06:28:15;4.77;;;2.57;;
1507;SDS011;745;48.586;10.032;2023-11-21T06:30:17;3.05;;;2.05;;
1507;SDS011;745;48.586;10.032;2023-11-21T06:32:19;3.25;;;1.83;;
1507;SDS011;745;48.586;10.032;2023-11-21T06:34:22;3.40;;;1.98;;
1507;SDS011;745;48.586;10.032;2023-11-21T06:36:22;2.77;;;2.33;;
1507;SDS011;745;48.586;10.032;2023-11-21T06:38:23;3.67;;;2.07;;
1507;SDS011;745;48.586;10.032;2023-11-21T06:40:23;4.50;;;2.97;;
1507;SDS011;745;48.586;10.032;2023-11-21T06:42:25;6.45;;;4.10;;
1507;SDS011;745;48.586;10.032;2023-11-21T06:44:25;3.88;;;3.10;;
1507;SDS011;745;48.586;10.032;2023-11-21T06:46:26;5.03;;;2.50;;
1507;SDS011;745;48.586;10.032;2023-11-21T06:48:26;4.60;;;3.13;;
1507;SDS011;745;48.586;10.032;2023-11-21T06:50:26;5.90;;;3.87;;
1507;SDS011;745;48.586;10.032;2023-11-21T06:52:27;5.53;;;4.50;;
1507;SDS011;745;48.586;10.032;2023-11-21T06:54:27;6.80;;;6.07;;
1507;SDS011;745;48.586;10.032;2023-11-21T06:56:27;6.83;;;4.53;;
1507;SDS011;745;48.586;10.032;2023-11-21T06:58:28;4.10;;;3.50;;
1507;SDS011;745;48.586;10.032;2023-11-21T07:00:28;5.90;;;3.53;;
1507;SDS011;745;48.586;10.032;2023-11-21T07:02:29;3.60;;;2.83;;
1507;SDS011;745;48.586;10.032;2023-11-21T07:04:29;5.23;;;2.30;;
1507;SDS011;745;48.586;10.032;2023-11-21T07:06:30;3.37;;;2.07;;
1507;SDS011;745;48.586;10.032;2023-11-21T07:08:30;6.53;;;1.93;;
1507;SDS011;745;48.586;10.032;2023-11-21T07:10:30;1.80;;;1.70;;
1507;SDS011;745;48.586;10.032;2023-11-21T07:12:31;2.00;;;1.80;;
1507;SDS011;745;48.586;10.032;2023-11-21T07:14:31;3.10;;;1.90;;
1507;SDS011;745;48.586;10.032;2023-11-21T07:16:32;2.20;;;2.00;;
1507;SDS011;745;48.586;10.032;2023-11-21T07:18:34;4.72;;;2.05;;
1507;SDS011;745;48.586;10.032;2023-11-21T07:20:35;2.80;;;2.00;;
1507;SDS011;745;48.586;10.032;2023-11-21T07:22:35;3.73;;;1.90;;
1507;SDS011;745;48.586;10.032;2023-11-21T07:24:36;5.43;;;1.97;;
1507;SDS011;745;48.586;10.032;2023-11-21T07:26:36;2.33;;;1.80;;
1507;SDS011;745;48.586;10.032;2023-11-21T07:28:37;2.50;;;1.97;;
1507;SDS011;745;48.586;10.032;2023-11-21T07:30:37;2.53;;;1.80;;
1507;SDS011;745;48.586;10.032;2023-11-21T07:32:38;2.07;;;1.77;;
1507;SDS011;745;48.586;10.032;2023-11-21T07:34:39;1.83;;;1.70;;
1507;SDS011;745;48.586;10.032;2023-11-21T07:36:40;2.43;;;2.03;;
1507;SDS011;745;48.586;10.032;2023-11-21T07:38:41;2.00;;;1.63;;
1507;SDS011;745;48.586;10.032;2023-11-21T07:40:42;3.05;;;2.70;;
1507;SDS011;745;48.586;10.032;2023-11-21T07:42:42;3.23;;;2.33;;
1507;SDS011;745;48.586;10.032;2023-11-21T07:44:42;3.47;;;3.00;;
1507;SDS011;745;48.586;10.032;2023-11-21T07:46:43;3.90;;;3.17;;
1507;SDS011;745;48.586;10.032;2023-11-21T07:48:44;2.63;;;2.40;;
1507;SDS011;745;48.586;10.032;2023-11-21T07:50:46;2.40;;;2.20;;
1507;SDS011;745;48.586;10.032;2023-11-21T07:52:47;3.72;;;2.42;;
1507;SDS011;745;48.586;10.032;2023-11-21T07:54:48;3.73;;;3.23;;
1507;SDS011;745;48.586;10.032;2023-11-21T07:56:48;3.93;;;3.17;;
1507;SDS011;745;48.586;10.032;2023-11-21T07:58:48;3.10;;;2.53;;
1507;SDS011;745;48.586;10.032;2023-11-21T08:00:50;2.90;;;2.20;;
1507;SDS011;745;48.586;10.032;2023-11-21T08:02:50;2.37;;;2.17;;
1507;SDS011;745;48.586;10.032;2023-11-21T08:04:50;2.60;;;2.40;;
1507;SDS011;745;48.586;10.032;2023-11-21T08:06:51;3.30;;;2.13;;
1507;SDS011;745;48.586;10.032;2023-11-21T08:08:51;2.10;;;1.80;;
1507;SDS011;745;48.586;10.032;2023-11-21T08:10:51;1.93;;;1.83;;
1507;SDS011;745;48.586;10.032;2023-11-21T08:12:58;3.92;;;1.98;;
1507;SDS011;745;48.586;10.032;2023-11-21T08:14:58;3.90;;;3.00;;
1507;SDS011;745;48.586;10.032;2023-11-21T08:16:58;4.37;;;3.00;;
1507;SDS011;745;48.586;10.032;2023-11-21T08:18:59;2.30;;;2.10;;
1507;SDS011;745;48.586;10.032;2023-11-21T08:20:59;2.50;;;1.83;;
1507;SDS011;745;48.586;10.032;2023-11-21T08:23:00;3.08;;;2.05;;
1507;SDS011;745;48.586;10.032;2023-11-21T08:25:02;2.97;;;2.35;;
1507;SDS011;745;48.586;10.032;2023-11-21T08:27:04;2.30;;;2.10;;
1507;SDS011;745;48.586;10.032;2023-11-21T08:29:05;2.10;;;2.00;;
1507;SDS011;745;48.586;10.032;2023-11-21T08:31:07;2.22;;;2.08;;
1507;SDS011;745;48.586;10.032;2023-11-21T08:33:07;2.00;;;1.80;;
1507;SDS011;745;48.586;10.032;2023-11-21T08:35:08;2.13;;;1.80;;
1507;SDS011;745;48.586;10.032;2023-11-21T08:37:08;1.67;;;1.50;;
1507;SDS011;745;48.586;10.032;2023-11-21T08:39:09;2.30;;;2.10;;
1507;SDS011;745;48.586;10.032;2023-11-21T08:41:13;3.17;;;2.85;;
1507;SDS011;745;48.586;10.032;2023-11-21T08:43:14;3.70;;;2.50;;
1507;SDS011;745;48.586;10.032;2023-11-21T08:45:16;3.08;;;2.60;;
1507;SDS011;745;48.586;10.032;2023-11-21T08:47:17;3.00;;;2.20;;
1507;SDS011;745;48.586;10.032;2023-11-21T08:49:18;6.65;;;2.25;;
1507;SDS011;745;48.586;10.032;2023-11-21T08:51:19;3.27;;;2.50;;
1507;SDS011;745;48.586;10.032;2023-11-21T08:53:20;3.77;;;3.27;;
1507;SDS011;745;48.586;10.032;2023-11-21T08:55:20;7.23;;;4.80;;
1507;SDS011;745;48.586;10.032;2023-11-21T08:57:20;4.10;;;3.07;;
1507;SDS011;745;48.586;10.032;2023-11-21T08:59:21;2.70;;;2.50;;
1507;SDS011;745;48.586;10.032;2023-11-21T09:01:21;3.73;;;1.90;;
1507;SDS011;745;48.586;10.032;2023-11-21T09:03:21;3.67;;;2.53;;
1507;SDS011;745;48.586;10.032;2023-11-21T09:05:22;3.03;;;2.33;;
1507;SDS011;745;48.586;10.032;2023-11-21T09:07:22;2.17;;;1.97;;
1507;SDS011;745;48.586;10.032;2023-11-21T09:09:22;2.53;;;2.33;;
1507;SDS011;745;48.586;10.032;2023-11-21T09:11:24;2.10;;;1.67;;
1507;SDS011;745;48.586;10.032;2023-11-21T09:13:27;1.98;;;1.85;;
1507;SDS011;745;48.586;10.032;2023-11-21T09:15:27;2.30;;;1.87;;
1507;SDS011;745;48.586;10.032;2023-11-21T09:17:28;2.27;;;1.60;;
1507;SDS011;745;48.586;10.032;2023-11-21T09:19:28;2.47;;;1.57;;
1507;SDS011;745;48.586;10.032;2023-11-21T09:21:29;1.90;;;1.30;;
1507;SDS011;745;48.586;10.032;2023-11-21T09:23:29;1.50;;;1.40;;
1507;SDS011;745;48.586;10.032;2023-11-21T09:25:30;1.63;;;1.53;;
1507;SDS011;745;48.586;10.032;2023-11-21T09:27:31;1.50;;;1.40;;
1507;SDS011;745;48.586;10.032;2023-11-21T09:29:31;1.93;;;1.30;;
1507;SDS011;745;48.586;10.032;2023-11-21T09:31:32;1.83;;;1.40;;
1507;SDS011;745;48.586;10.032;2023-11-21T09:33:33;1.67;;;1.20;;
1507;SDS011;745;48.586;10.032;2023-11-21T09:35:34;2.93;;;1.60;;
1507;SDS011;745;48.586;10.032;2023-11-21T09:37:34;1.20;;;1.10;;
1507;SDS011;745;48.586;10.032;2023-11-21T09:39:37;1.30;;;1.15;;
1507;SDS011;745;48.586;10.032;2023-11-21T09:44:01;1.00;;;0.98;;
1507;SDS011;745;48.586;10.032;2023-11-21T09:46:02;1.20;;;1.10;;
1507;SDS011;745;48.586;10.032;2023-11-21T09:48:06;2.65;;;1.08;;
1507;SDS011;745;48.586;10.032;2023-11-21T09:50:07;1.30;;;1.20;;
1507;SDS011;745;48.586;10.032;2023-11-21T09:52:13;1.80;;;1.30;;
1507;SDS011;745;48.586;10.032;2023-11-21T09:54:18;1.50;;;1.15;;
1507;SDS011;745;48.586;10.032;2023-11-21T09:56:19;1.10;;;1.00;;
1507;SDS011;745;48.586;10.032;2023-11-21T09:58:23;0.90;;;0.90;;
1507;SDS011;745;48.586;10.032;2023-11-21T10:00:24;2.17;;;1.03;;
1507;SDS011;745;48.586;10.032;2023-11-21T10:02:27;1.60;;;1.10;;
1507;SDS011;745;48.586;10.032;2023-11-21T10:04:32;0.93;;;0.93;;
1507;SDS011;745;48.586;10.032;2023-11-21T10:06:33;1.00;;;0.90;;
1507;SDS011;745;48.586;10.032;2023-11-21T10:08:33;1.00;;;0.90;;
1507;SDS011;745;48.586;10.032;2023-11-21T10:10:34;1.20;;;1.10;;
1507;SDS011;745;48.586;10.032;2023-11-21T10:12:35;2.00;;;1.10;;
1507;SDS011;745;48.586;10.032;2023-11-21T10:14:37;1.10;;;1.00;;
1507;SDS011;745;48.586;10.032;2023-11-21T10:16:41;1.95;;;1.10;;
1507;SDS011;745;48.586;10.032;2023-11-21T10:18:44;1.55;;;1.45;;
1507;SDS011;745;48.586;10.032;2023-11-21T10:20:46;0.90;;;0.90;;
1507;SDS011;745;48.586;10.032;2023-11-21T10:22:51;1.63;;;1.27;;
1507;SDS011;745;48.586;10.032;2023-11-21T10:24:52;1.10;;;1.00;;
1507;SDS011;745;48.586;10.032;2023-11-21T10:26:52;1.83;;;1.20;;
1507;SDS011;745;48.586;10.032;2023-11-21T10:29:00;1.30;;;1.20;;
1507;SDS011;745;48.586;10.032;2023-11-21T10:31:03;1.00;;;1.00;;
1507;SDS011;745;48.586;10.032;2023-11-21T10:33:07;1.20;;;1.10;;
1507;SDS011;745;48.586;10.032;2023-11-21T10:35:11;1.65;;;1.10;;
1507;SDS011;745;48.586;10.032;2023-11-21T10:37:12;1.40;;;1.30;;
1507;SDS011;745;48.586;10.032;2023-11-21T10:39:21;1.10;;;1.00;;
1507;SDS011;745;48.586;10.032;2023-11-21T10:41:23;1.52;;;1.17;;
1507;SDS011;745;48.586;10.032;2023-11-21T10:43:25;1.65;;;1.40;;
1507;SDS011;745;48.586;10.032;2023-11-21T10:45:26;1.40;;;1.30;;
1507;SDS011;745;48.586;10.032;2023-11-21T10:47:29;2.38;;;1.30;;
1507;SDS011;745;48.586;10.032;2023-11-21T10:49:31;1.27;;;1.17;;
1507;SDS011;745;48.586;10.032;2023-11-21T10:51:31;1.20;;;1.10;;
1507;SDS011;745;48.586;10.032;2023-11-21T10:53:32;1.83;;;1.00;;
1507;SDS011;745;48.586;10.032;2023-11-21T10:55:32;1.30;;;1.20;;
1507;SDS011;745;48.586;10.032;2023-11-21T10:57:33;1.63;;;1.10;;
1507;SDS011;745;48.586;10.032;2023-11-21T10:59:33;2.17;;;1.30;;
1507;SDS011;745;48.586;10.032;2023-11-21T11:01:34;1.50;;;1.40;;
1507;SDS011;745;48.586;10.032;2023-11-21T11:03:34;1.80;;;1.20;;
1507;SDS011;745;48.586;10.032;2023-11-21T11:05:36;1.40;;;1.30;;
1507;SDS011;745;48.586;10.032;2023-11-21T11:07:36;1.93;;;1.33;;
1507;SDS011;745;48.586;10.032;2023-11-21T11:09:38;1.40;;;1.20;;
1507;SDS011;745;48.586;10.032;2023-11-21T11:11:41;1.67;;;1.30;;
1507;SDS011;745;48.586;10.032;2023-11-21T11:13:44;1.70;;;1.42;;
1507;SDS011;745;48.586;10.032;2023-11-21T11:15:47;2.75;;;1.55;;
1507;SDS011;745;48.586;10.032;2023-11-21T11:17:48;1.83;;;1.50;;
1507;SDS011;745;48.586;10.032;2023-11-21T11:19:48;1.83;;;1.73;;
1507;SDS011;745;48.586;10.032;2023-11-21T11:26:28;3.55;;;1.80;;
1507;SDS011;745;48.586;10.032;2023-11-21T11:31:40;2.22;;;2.03;;
1507;SDS011;745;48.586;10.032;2023-11-21T11:33:57;2.85;;;1.70;;
1507;SDS011;745;48.586;10.032;2023-11-21T11:36:10;2.03;;;1.92;;
1507;SDS011;745;48.586;10.032;2023-11-21T11:38:15;1.90;;;1.80;;
1507;SDS011;745;48.586;10.032;2023-11-21T11:40:16;2.50;;;1.90;;
1507;SDS011;745;48.586;10.032;2023-11-21T11:42:16;2.20;;;1.80;;
1507;SDS011;745;48.586;10.032;2023-11-21T11:46:52;3.58;;;1.95;;
1507;SDS011;745;48.586;10.032;2023-11-21T11:49:02;2.25;;;2.05;;
1507;SDS011;745;48.586;10.032;2023-11-21T11:51:09;1.98;;;1.77;;
1507;SDS011;745;48.586;10.032;2023-11-21T11:53:12;2.35;;;2.15;;
1507;SDS011;745;48.586;10.032;2023-11-21T11:55:14;2.03;;;1.90;;
1507;SDS011;745;48.586;10.032;2023-11-21T11:57:18;2.00;;;1.90;;
1507;SDS011;745;48.586;10.032;2023-11-21T11:59:19;2.33;;;2.13;;
1507;SDS011;745;48.586;10.032;2023-11-21T12:01:19;2.60;;;2.40;;
1507;SDS011;745;48.586;10.032;2023-11-21T12:03:20;4.35;;;2.40;;
1507;SDS011;745;48.586;10.032;2023-11-21T12:05:21;3.20;;;2.50;;
1507;SDS011;745;48.586;10.032;2023-11-21T12:07:23;2.40;;;2.20;;
1507;SDS011;745;48.586;10.032;2023-11-21T12:09:23;2.50;;;2.30;;
1507;SDS011;745;48.586;10.032;2023-11-21T12:11:30;2.80;;;2.60;;
1507;SDS011;745;48.586;10.032;2023-11-21T12:13:31;5.00;;;3.30;;
1507;SDS011;745;48.586;10.032;2023-11-21T12:15:31;2.53;;;2.33;;
1507;SDS011;745;48.586;10.032;2023-11-21T12:17:32;2.20;;;2.00;;
1507;SDS011;745;48.586;10.032;2023-11-21T12:19:32;2.40;;;1.97;;
1507;SDS011;745;48.586;10.032;2023-11-21T12:21:33;2.90;;;2.37;;
1507;SDS011;745;48.586;10.032;2023-11-21T12:23:34;2.43;;;2.13;;
1507;SDS011;745;48.586;10.032;2023-11-21T12:25:34;3.40;;;2.00;;
1507;SDS011;745;48.586;10.032;2023-11-21T12:27:36;2.45;;;2.25;;
1507;SDS011;745;48.586;10.032;2023-11-21T12:29:36;2.20;;;2.00;;
1507;SDS011;745;48.586;10.032;2023-11-21T12:31:37;2.20;;;2.00;;
1507;SDS011;745;48.586;10.032;2023-11-21T12:33:38;1.90;;;1.70;;
1507;SDS011;745;48.586;10.032;2023-11-21T12:35:38;1.80;;;1.70;;
1507;SDS011;745;48.586;10.032;2023-11-21T12:37:39;2.13;;;2.03;;
1507;SDS011;745;48.586;10.032;2023-11-21T12:39:40;2.22;;;1.90;;
1507;SDS011;745;48.586;10.032;2023-11-21T12:41:40;2.03;;;1.93;;
1507;SDS011;745;48.586;10.032;2023-11-21T12:43:41;2.33;;;2.13;;
1507;SDS011;745;48.586;10.032;2023-11-21T12:45:41;2.20;;;1.80;;